TimeCST,TemperatureF,Dew PointF,Humidity,Sea Level PressureIn,VisibilityMPH,Wind Direction,Wind SpeedMPH,Gust SpeedMPH,PrecipitationIn,Events,Conditions,WindDirDegrees,DateUTC
12:53 AM,30.9,24.1,76,30.18,10.0,NNW,11.5,-,N/A,,Overcast,330,2013-03-03 06:53:00
1:53 AM,30.0,23.0,75,30.17,10.0,NNW,10.4,-,N/A,,Overcast,340,2013-03-03 07:53:00
2:53 AM,30.0,23.0,75,30.16,10.0,NW,10.4,-,N/A,,Overcast,320,2013-03-03 08:53:00
3:53 AM,28.9,23.0,78,30.16,10.0,NW,8.1,-,N/A,,Overcast,310,2013-03-03 09:53:00
5:53 AM,26.1,21.9,84,30.18,10.0,NW,8.1,-,N/A,,Clear,320,2013-03-03 11:53:00
6:53 AM,27.0,21.9,81,30.19,10.0,NW,8.1,-,N/A,,Clear,320,2013-03-03 12:53:00
7:53 AM,30.0,21.9,72,30.20,10.0,NNW,9.2,-,N/A,,Clear,330,2013-03-03 13:53:00
8:53 AM,32.0,16.0,52,30.20,10.0,North,13.8,20.7,N/A,,Mostly Cloudy,350,2013-03-03 14:53:00
9:53 AM,33.1,18.0,54,30.20,10.0,NNW,9.2,-,N/A,,Partly Cloudy,330,2013-03-03 15:53:00
10:53 AM,36.0,18.0,48,30.19,10.0,WNW,8.1,20.7,N/A,,Clear,290,2013-03-03 16:53:00
11:53 AM,39.0,18.0,43,30.18,10.0,NW,12.7,18.4,N/A,,Clear,320,2013-03-03 17:53:00
12:53 PM,41.0,17.1,38,30.15,10.0,NW,13.8,-,N/A,,Clear,320,2013-03-03 18:53:00
1:53 PM,42.1,18.0,38,30.13,10.0,WNW,9.2,17.3,N/A,,Clear,300,2013-03-03 19:53:00
2:53 PM,43.0,18.0,37,30.13,10.0,West,11.5,-,N/A,,Clear,260,2013-03-03 20:53:00
3:53 PM,43.0,16.0,34,30.12,10.0,West,12.7,-,N/A,,Clear,270,2013-03-03 21:53:00
4:53 PM,43.0,16.0,34,30.12,10.0,WSW,5.8,-,N/A,,Clear,240,2013-03-03 22:53:00
5:53 PM,39.9,16.0,38,30.12,10.0,West,4.6,-,N/A,,Clear,270,2013-03-03 23:53:00
6:53 PM,35.1,19.9,54,30.14,10.0,Calm,Calm,-,N/A,,Clear,0,2013-03-04 00:53:00
7:53 PM,32.0,21.9,66,30.14,10.0,Calm,Calm,-,N/A,,Clear,0,2013-03-04 01:53:00
8:53 PM,30.9,24.1,76,30.12,10.0,Calm,Calm,-,N/A,,Clear,0,2013-03-04 02:53:00
9:53 PM,28.9,21.9,75,30.13,10.0,Calm,Calm,-,N/A,,Clear,0,2013-03-04 03:53:00
10:53 PM,28.0,21.9,78,30.14,10.0,Calm,Calm,-,N/A,,Clear,0,2013-03-04 04:53:00
11:53 PM,28.9,25.0,85,30.13,10.0,Calm,Calm,-,N/A,,Mostly Cloudy,0,2013-03-04 05:53:00